Time;durP1;ratioP1;P1;durP2;ratioP2;P2;SDS_P1;SDS_P2;PMS_P1;PMS_P2;Temp;Humidity;BMP_temperature;BMP_pressure;BME280_temperature;BME280_humidity;BME280_pressure;Samples;Min_cycle;Max_cycle;Signal;HPM_P1;HPM_P2
2023/05/13 00:01:20;;;;;;;;;;;11.30;54.70;;;;;;4105105;28;20069;-86
2023/05/13 00:03:40;;;;;;;;;;;11.20;54.50;;;;;;4108001;28;20355;-85
2023/05/13 00:06:01;;;;;;;;;;;11.10;54.60;;;;;;4108550;28;20336;-84
2023/05/13 00:08:22;;;;;;;;;;;11.10;54.70;;;;;;4095634;28;20393;-84
2023/05/13 00:10:23;;;;;;;;;;;11.00;54.70;;;;;;4105445;28;19929;-85
2023/05/13 00:12:23;;;;;;;;;;;11.00;54.50;;;;;;4112015;28;19918;-84
2023/05/13 00:14:24;;;;;;;;;;;10.90;54.40;;;;;;4152594;28;19917;-84
2023/05/13 00:16:28;;;;;;;;;;;10.90;54.30;;;;;;4152302;28;19928;-85
2023/05/13 00:18:29;;;;;;;;;;;10.80;54.30;;;;;;4132625;28;19913;-85
2023/05/13 00:20:49;;;;;;;;;;;10.80;55.50;;;;;;4157099;28;19995;-84
2023/05/13 00:23:13;;;;;;;;;;;10.80;55.40;;;;;;4171122;28;20023;-84
2023/05/13 00:25:34;;;;;;;;;;;10.80;55.60;;;;;;4167398;28;20378;-84
2023/05/13 00:27:59;;;;;;;;;;;10.70;56.00;;;;;;4158508;28;21839;-84
2023/05/13 00:30:20;;;;;;;;;;;10.70;55.90;;;;;;4172887;28;19921;-84
2023/05/13 00:32:41;;;;;;;;;;;10.70;55.80;;;;;;4174616;28;20049;-84
2023/05/13 00:35:01;;;;;;;;;;;10.70;55.70;;;;;;4159884;28;20295;-84
2023/05/13 00:37:22;;;;;;;;;;;10.70;55.50;;;;;;4175097;28;20555;-85
2023/05/13 00:39:42;;;;;;;;;;;10.60;55.20;;;;;;4172796;28;19924;-85
2023/05/13 00:41:43;;;;;;;;;;;10.60;55.00;;;;;;4159034;28;20204;-84
2023/05/13 00:44:04;;;;;;;;;;;10.60;55.00;;;;;;4170000;28;20303;-84
2023/05/13 00:46:24;;;;;;;;;;;10.50;54.90;;;;;;4172853;28;20103;-84
2023/05/13 00:48:25;;;;;;;;;;;10.60;54.90;;;;;;4173137;28;19912;-85
2023/05/13 00:50:26;;;;;;;;;;;10.50;54.80;;;;;;4157757;28;20004;-85
2023/05/13 00:52:28;;;;;;;;;;;10.50;55.20;;;;;;4145039;28;19921;-84
2023/05/13 00:54:48;;;;;;;;;;;10.50;55.70;;;;;;4161512;28;19976;-85
2023/05/13 00:57:09;;;;;;;;;;;10.40;55.90;;;;;;4175925;28;20586;-85
2023/05/13 00:59:30;;;;;;;;;;;10.30;55.90;;;;;;4155913;28;20580;-84
2023/05/13 01:02:10;;;;;;;;;;;10.30;55.90;;;;;;4154544;28;20674;-84
2023/05/13 01:04:36;;;;;;;;;;;10.30;55.90;;;;;;4086858;28;19941;-84
2023/05/13 01:07:09;;;;;;;;;;;10.20;55.60;;;;;;4085354;28;19918;-83
2023/05/13 01:09:39;;;;;;;;;;;10.20;55.80;;;;;;4086031;28;20024;-85
2023/05/13 01:12:16;;;;;;;;;;;10.20;55.80;;;;;;4085782;28;20321;-84
2023/05/13 01:14:40;;;;;;;;;;;10.20;55.60;;;;;;4072594;28;19923;-84
2023/05/13 01:17:04;;;;;;;;;;;10.20;55.90;;;;;;4076566;28;20008;-84
2023/05/13 01:19:24;;;;;;;;;;;10.20;56.00;;;;;;4087342;28;19918;-84
2023/05/13 01:21:26;;;;;;;;;;;10.10;56.10;;;;;;4073041;29;20366;-84
2023/05/13 01:23:26;;;;;;;;;;;10.10;55.90;;;;;;4084560;28;20673;-83
2023/05/13 01:25:27;;;;;;;;;;;10.10;55.90;;;;;;4088500;28;19917;-84
2023/05/13 01:27:28;;;;;;;;;;;10.10;55.80;;;;;;4083861;28;19915;-84
2023/05/13 01:29:29;;;;;;;;;;;10.10;55.90;;;;;;4057384;29;19942;-83
2023/05/13 01:31:29;;;;;;;;;;;10.10;55.70;;;;;;4056275;29;20732;-84
2023/05/13 01:33:31;;;;;;;;;;;10.00;55.80;;;;;;4070757;29;20377;-84
2023/05/13 01:35:32;;;;;;;;;;;10.10;56.00;;;;;;4088471;28;19926;-84
2023/05/13 01:37:32;;;;;;;;;;;10.10;55.80;;;;;;4086734;28;19930;-83
2023/05/13 01:39:36;;;;;;;;;;;10.00;55.70;;;;;;4087821;28;20642;-83
2023/05/13 01:41:36;;;;;;;;;;;10.00;55.70;;;;;;4129472;28;19924;-84
2023/05/13 01:43:37;;;;;;;;;;;10.00;55.90;;;;;;4169093;28;20483;-84
2023/05/13 01:45:38;;;;;;;;;;;10.00;56.00;;;;;;4168644;28;19916;-84
2023/05/13 01:47:38;;;;;;;;;;;10.00;56.00;;;;;;4148240;28;19931;-83
2023/05/13 01:49:39;;;;;;;;;;;9.90;56.20;;;;;;4149526;28;19957;-83
2023/05/13 01:51:40;;;;;;;;;;;10.00;56.50;;;;;;4151351;28;19917;-84
2023/05/13 01:53:40;;;;;;;;;;;9.90;56.00;;;;;;4151217;28;19975;-83
2023/05/13 01:55:41;;;;;;;;;;;10.00;56.40;;;;;;4156306;28;20473;-83
2023/05/13 01:57:44;;;;;;;;;;;9.90;56.70;;;;;;4169001;28;19955;-84
2023/05/13 01:59:45;;;;;;;;;;;9.90;56.70;;;;;;4155527;28;19960;-84
2023/05/13 02:01:45;;;;;;;;;;;9.90;57.00;;;;;;4170300;28;20305;-84
2023/05/13 02:03:55;;;;;;;;;;;9.90;57.20;;;;;;4149464;28;19983;-84
2023/05/13 02:05:56;;;;;;;;;;;9.80;57.20;;;;;;4142783;28;19925;-83
2023/05/13 02:07:56;;;;;;;;;;;9.80;57.10;;;;;;4153699;28;19908;-83
2023/05/13 02:09:58;;;;;;;;;;;9.80;57.30;;;;;;4167281;28;20519;-84
2023/05/13 02:11:59;;;;;;;;;;;9.80;57.40;;;;;;4151641;28;20610;-83
2023/05/13 02:14:00;;;;;;;;;;;9.70;57.50;;;;;;4167706;28;19959;-83
2023/05/13 02:16:02;;;;;;;;;;;9.80;57.50;;;;;;4153174;28;20000;-83
2023/05/13 02:18:02;;;;;;;;;;;9.70;57.20;;;;;;4149468;28;20079;-83
2023/05/13 02:20:03;;;;;;;;;;;9.70;57.30;;;;;;4168457;28;19967;-83
2023/05/13 02:22:04;;;;;;;;;;;9.70;57.10;;;;;;4150304;28;19927;-84
2023/05/13 02:24:06;;;;;;;;;;;9.70;57.00;;;;;;4174408;28;19920;-83
2023/05/13 02:26:07;;;;;;;;;;;9.60;57.20;;;;;;4164221;28;21963;-84
2023/05/13 02:28:08;;;;;;;;;;;9.60;57.20;;;;;;4170768;28;19967;-84
2023/05/13 02:30:08;;;;;;;;;;;9.60;57.30;;;;;;4136960;28;19914;-83
2023/05/13 02:32:09;;;;;;;;;;;9.60;57.30;;;;;;4153845;28;20000;-83
2023/05/13 02:34:10;;;;;;;;;;;9.50;57.30;;;;;;4143955;28;19964;-83
2023/05/13 02:36:10;;;;;;;;;;;9.50;57.10;;;;;;4152879;28;19913;-84
2023/05/13 02:38:11;;;;;;;;;;;9.50;56.80;;;;;;4152201;28;19909;-83
2023/05/13 02:40:13;;;;;;;;;;;9.50;56.90;;;;;;4141087;28;20573;-84
2023/05/13 02:42:15;;;;;;;;;;;9.50;57.00;;;;;;4153790;28;19917;-83
2023/05/13 02:44:16;;;;;;;;;;;9.40;56.70;;;;;;4166599;28;20930;-84
2023/05/13 02:46:17;;;;;;;;;;;9.30;56.50;;;;;;4156102;28;19956;-85
2023/05/13 02:48:18;;;;;;;;;;;9.30;56.20;;;;;;4153207;28;19971;-85
2023/05/13 02:50:18;;;;;;;;;;;9.30;56.00;;;;;;4150290;28;20363;-84
2023/05/13 02:52:19;;;;;;;;;;;9.20;55.90;;;;;;4136997;28;19914;-86
2023/05/13 02:54:20;;;;;;;;;;;9.20;56.00;;;;;;4165809;28;19928;-83
2023/05/13 02:56:20;;;;;;;;;;;9.20;57.30;;;;;;4171750;28;20310;-84
2023/05/13 02:58:21;;;;;;;;;;;9.10;57.00;;;;;;4167213;28;20375;-83
2023/05/13 03:00:28;;;;;;;;;;;9.00;57.20;;;;;;4168704;28;20394;-83
2023/05/13 03:02:30;;;;;;;;;;;9.10;57.50;;;;;;4136499;28;19923;-83
2023/05/13 03:04:32;;;;;;;;;;;9.00;57.60;;;;;;4154169;28;19959;-84
2023/05/13 03:06:53;;;;;;;;;;;8.90;57.60;;;;;;4153285;28;19971;-84
2023/05/13 03:09:16;;;;;;;;;;;8.90;57.90;;;;;;4169980;28;19917;-83
2023/05/13 03:11:17;;;;;;;;;;;8.90;58.00;;;;;;4153367;28;19923;-84
2023/05/13 03:13:38;;;;;;;;;;;8.90;58.10;;;;;;4151987;28;19921;-84
2023/05/13 03:15:40;;;;;;;;;;;8.90;58.10;;;;;;4154687;28;19928;-83
2023/05/13 03:17:54;;;;;;;;;;;8.80;58.00;;;;;;4144175;28;19957;-84
2023/05/13 03:20:14;;;;;;;;;;;8.80;57.90;;;;;;4169021;28;19921;-83
2023/05/13 03:22:37;;;;;;;;;;;8.80;58.50;;;;;;4174361;28;19944;-83
2023/05/13 03:24:58;;;;;;;;;;;8.90;58.60;;;;;;4159870;28;20063;-84
2023/05/13 03:27:18;;;;;;;;;;;8.80;58.60;;;;;;4171142;28;19958;-83
2023/05/13 03:29:39;;;;;;;;;;;8.90;58.80;;;;;;4160145;28;19921;-84
2023/05/13 03:31:59;;;;;;;;;;;8.80;58.80;;;;;;4173367;28;19916;-84
2023/05/13 03:34:23;;;;;;;;;;;8.80;58.90;;;;;;4170813;28;19920;-84
2023/05/13 03:36:43;;;;;;;;;;;8.80;59.20;;;;;;4173127;28;19917;-84
2023/05/13 03:39:04;;;;;;;;;;;8.80;59.10;;;;;;4172251;28;19928;-84
2023/05/13 03:41:26;;;;;;;;;;;8.80;59.20;;;;;;4169362;28;19951;-84
2023/05/13 03:43:27;;;;;;;;;;;8.90;59.60;;;;;;4154186;28;20087;-83
2023/05/13 03:45:28;;;;;;;;;;;8.80;60.00;;;;;;4169571;28;20462;-83
2023/05/13 03:47:29;;;;;;;;;;;8.80;59.10;;;;;;4164200;28;20406;-83
2023/05/13 03:49:30;;;;;;;;;;;8.80;58.80;;;;;;4152113;28;19921;-83
2023/05/13 03:51:33;;;;;;;;;;;8.80;58.80;;;;;;4141946;28;19939;-84
2023/05/13 03:53:33;;;;;;;;;;;8.80;58.80;;;;;;4171011;28;19916;-84
2023/05/13 03:55:37;;;;;;;;;;;8.80;58.80;;;;;;4154834;28;20422;-83
2023/05/13 03:57:37;;;;;;;;;;;8.80;58.70;;;;;;4171917;28;19913;-85
2023/05/13 03:59:38;;;;;;;;;;;8.80;58.60;;;;;;4168491;28;21337;-83
2023/05/13 04:01:39;;;;;;;;;;;8.80;58.60;;;;;;4154095;28;20650;-83
2023/05/13 04:03:41;;;;;;;;;;;8.90;58.60;;;;;;4142065;28;19925;-83
2023/05/13 04:05:42;;;;;;;;;;;8.90;58.80;;;;;;4152274;28;19929;-83
2023/05/13 04:07:43;;;;;;;;;;;8.90;59.40;;;;;;4153331;28;19947;-83
2023/05/13 04:09:43;;;;;;;;;;;8.90;60.40;;;;;;4135432;28;19924;-83
2023/05/13 04:11:44;;;;;;;;;;;8.90;61.00;;;;;;4168335;28;21716;-83
2023/05/13 04:13:45;;;;;;;;;;;9.00;61.20;;;;;;4151785;28;19921;-83
2023/05/13 04:15:45;;;;;;;;;;;8.90;60.80;;;;;;4152583;28;19916;-83
2023/05/13 04:17:46;;;;;;;;;;;9.10;61.40;;;;;;4138436;28;20478;-83
2023/05/13 04:19:47;;;;;;;;;;;9.00;61.90;;;;;;4153241;28;19913;-84
2023/05/13 04:21:47;;;;;;;;;;;9.10;61.50;;;;;;4148319;28;19921;-84
2023/05/13 04:23:48;;;;;;;;;;;9.20;62.40;;;;;;4154219;28;20626;-83
2023/05/13 04:25:50;;;;;;;;;;;9.20;62.70;;;;;;4153003;28;20396;-83
2023/05/13 04:27:50;;;;;;;;;;;9.30;63.30;;;;;;4141026;28;19922;-83
2023/05/13 04:29:51;;;;;;;;;;;9.40;64.20;;;;;;4147896;28;19921;-84
2023/05/13 04:31:51;;;;;;;;;;;9.40;64.80;;;;;;4149566;28;19950;-84
2023/05/13 04:33:52;;;;;;;;;;;9.50;65.70;;;;;;4148885;28;20003;-84
2023/05/13 04:35:53;;;;;;;;;;;9.60;64.70;;;;;;4148662;28;20016;-84
2023/05/13 04:37:53;;;;;;;;;;;9.70;64.60;;;;;;4150578;28;20438;-84
2023/05/13 04:39:54;;;;;;;;;;;9.80;65.50;;;;;;4165624;28;19923;-84
2023/05/13 04:41:55;;;;;;;;;;;9.90;65.90;;;;;;4148489;28;19928;-84
2023/05/13 04:43:55;;;;;;;;;;;10.00;65.90;;;;;;4143895;28;20032;-84
2023/05/13 04:45:58;;;;;;;;;;;10.10;65.80;;;;;;4145032;28;20537;-84
2023/05/13 04:47:58;;;;;;;;;;;10.20;65.90;;;;;;4147847;28;19917;-84
2023/05/13 04:49:59;;;;;;;;;;;10.40;66.30;;;;;;4147578;28;20287;-84
2023/05/13 04:52:01;;;;;;;;;;;10.40;66.30;;;;;;4148783;28;19922;-84
2023/05/13 04:54:01;;;;;;;;;;;10.50;66.40;;;;;;4151468;28;19929;-84
2023/05/13 04:56:02;;;;;;;;;;;10.60;66.40;;;;;;4166120;28;20660;-84
2023/05/13 04:58:03;;;;;;;;;;;10.70;66.60;;;;;;4126016;28;20411;-85
2023/05/13 05:00:04;;;;;;;;;;;10.80;66.60;;;;;;4159388;28;19948;-84
2023/05/13 05:02:05;;;;;;;;;;;10.90;67.00;;;;;;4147155;28;19917;-85
2023/05/13 05:04:05;;;;;;;;;;;11.00;67.00;;;;;;4145395;28;19936;-85
2023/05/13 05:06:06;;;;;;;;;;;11.10;67.00;;;;;;4149148;28;20438;-84
2023/05/13 05:08:07;;;;;;;;;;;11.20;66.70;;;;;;4146351;28;19921;-85
2023/05/13 05:10:08;;;;;;;;;;;11.30;66.90;;;;;;4148527;28;19925;-84
2023/05/13 05:12:08;;;;;;;;;;;11.40;66.60;;;;;;4141392;28;20284;-84
2023/05/13 05:14:09;;;;;;;;;;;11.40;66.00;;;;;;4161871;28;20469;-84
2023/05/13 05:16:18;;;;;;;;;;;11.50;65.70;;;;;;4143704;28;19961;-84
2023/05/13 05:18:40;;;;;;;;;;;11.60;64.80;;;;;;4163352;28;19917;-84
2023/05/13 05:20:54;;;;;;;;;;;11.70;64.80;;;;;;4143624;28;19991;-84
2023/05/13 05:23:14;;;;;;;;;;;11.70;64.00;;;;;;4164499;28;19931;-85
2023/05/13 05:25:35;;;;;;;;;;;11.80;63.00;;;;;;4151357;28;19941;-84
2023/05/13 05:27:40;;;;;;;;;;;11.90;62.80;;;;;;4149429;28;19920;-85
2023/05/13 05:30:01;;;;;;;;;;;12.00;62.30;;;;;;4168695;28;19924;-84
2023/05/13 05:32:22;;;;;;;;;;;12.00;62.10;;;;;;4170089;28;19932;-84
2023/05/13 05:34:48;;;;;;;;;;;12.00;61.90;;;;;;4165576;28;20006;-85
2023/05/13 05:37:09;;;;;;;;;;;12.10;61.30;;;;;;4166197;28;20434;-84
2023/05/13 05:39:29;;;;;;;;;;;12.10;59.80;;;;;;4164998;28;19924;-83
2023/05/13 05:41:50;;;;;;;;;;;12.10;59.30;;;;;;4154273;28;19984;-83
2023/05/13 05:44:12;;;;;;;;;;;12.20;59.40;;;;;;4156201;28;19964;-83
2023/05/13 05:46:35;;;;;;;;;;;12.20;59.20;;;;;;4151175;28;19921;-83
2023/05/13 05:48:55;;;;;;;;;;;12.30;59.20;;;;;;4167523;28;19913;-85
2023/05/13 05:51:16;;;;;;;;;;;12.40;59.10;;;;;;4153522;28;19917;-83
2023/05/13 05:53:47;;;;;;;;;;;12.40;59.00;;;;;;4154071;28;19936;-83
2023/05/13 05:56:14;;;;;;;;;;;12.40;58.70;;;;;;4154662;28;19917;-83
2023/05/13 05:58:45;;;;;;;;;;;12.50;58.90;;;;;;4172061;28;19927;-83
2023/05/13 06:05:12;;;;;;;;;;;12.70;58.60;;;;;;2171397;22;20575;-84
2023/05/13 06:07:16;;;;;;;;;;;12.80;58.80;;;;;;4104132;28;20005;-84
2023/05/13 06:09:16;;;;;;;;;;;12.80;58.00;;;;;;4103839;28;19973;-84
2023/05/13 06:11:20;;;;;;;;;;;12.90;56.40;;;;;;4139734;28;20367;-83
2023/05/13 06:13:23;;;;;;;;;;;12.90;55.00;;;;;;4135105;28;19968;-84
2023/05/13 06:15:24;;;;;;;;;;;13.00;54.40;;;;;;4151765;28;20446;-84
2023/05/13 06:17:28;;;;;;;;;;;13.00;54.20;;;;;;4119619;28;19921;-83
2023/05/13 06:19:29;;;;;;;;;;;13.00;53.90;;;;;;4122466;28;19925;-83
2023/05/13 06:21:30;;;;;;;;;;;13.10;54.20;;;;;;4136895;28;19972;-84
2023/05/13 06:23:34;;;;;;;;;;;13.10;53.30;;;;;;4122881;28;20012;-83
2023/05/13 06:25:37;;;;;;;;;;;13.20;53.20;;;;;;4138649;28;20360;-83
2023/05/13 06:27:37;;;;;;;;;;;13.20;53.10;;;;;;4136455;28;20792;-82
2023/05/13 06:29:38;;;;;;;;;;;13.10;53.30;;;;;;4137090;28;20327;-83
2023/05/13 06:31:39;;;;;;;;;;;13.30;54.10;;;;;;4152474;28;19979;-83
2023/05/13 06:33:40;;;;;;;;;;;13.40;53.60;;;;;;4134020;28;19920;-83
2023/05/13 06:35:48;;;;;;;;;;;13.40;54.00;;;;;;4150292;28;20452;-82
2023/05/13 06:37:48;;;;;;;;;;;13.40;54.10;;;;;;4154205;28;19945;-83
2023/05/13 06:39:49;;;;;;;;;;;13.40;53.20;;;;;;4121505;28;19914;-83
2023/05/13 06:41:52;;;;;;;;;;;13.50;53.00;;;;;;4132226;28;19922;-82
2023/05/13 06:43:53;;;;;;;;;;;13.50;53.20;;;;;;4138171;28;19977;-83
2023/05/13 06:46:06;;;;;;;;;;;13.50;53.40;;;;;;4154317;28;19921;-83
2023/05/13 06:48:07;;;;;;;;;;;13.40;53.90;;;;;;4140537;28;19914;-83
2023/05/13 06:50:07;;;;;;;;;;;13.60;53.90;;;;;;4140236;28;20409;-83
2023/05/13 06:52:09;;;;;;;;;;;13.60;54.00;;;;;;4124105;28;19961;-83
2023/05/13 06:54:09;;;;;;;;;;;13.70;53.40;;;;;;4156202;28;19917;-83
2023/05/13 06:56:10;;;;;;;;;;;13.70;53.40;;;;;;4135531;28;20081;-84
2023/05/13 06:58:11;;;;;;;;;;;13.80;53.20;;;;;;4138405;28;19925;-83
2023/05/13 07:00:32;;;;;;;;;;;13.80;52.90;;;;;;4139660;28;21230;-83
2023/05/13 07:02:34;;;;;;;;;;;13.90;53.00;;;;;;4122344;28;19922;-83
2023/05/13 07:04:55;;;;;;;;;;;13.80;52.70;;;;;;4140141;28;20001;-83
2023/05/13 07:07:15;;;;;;;;;;;13.90;53.40;;;;;;4155483;28;19925;-83
2023/05/13 07:09:36;;;;;;;;;;;13.90;52.90;;;;;;4153682;28;19921;-84
2023/05/13 07:11:56;;;;;;;;;;;14.00;52.80;;;;;;4140979;28;19914;-84
2023/05/13 07:14:20;;;;;;;;;;;14.00;53.10;;;;;;4156250;28;19918;-83
2023/05/13 07:16:40;;;;;;;;;;;14.00;53.30;;;;;;4142323;28;19917;-83
2023/05/13 07:19:01;;;;;;;;;;;14.10;52.80;;;;;;4154046;28;19921;-83
2023/05/13 07:21:21;;;;;;;;;;;14.20;53.20;;;;;;4153948;28;19921;-83
2023/05/13 07:23:42;;;;;;;;;;;14.10;54.20;;;;;;4140859;28;19968;-84
2023/05/13 07:26:03;;;;;;;;;;;14.20;53.50;;;;;;4154383;28;20013;-83
2023/05/13 07:28:03;;;;;;;;;;;14.10;52.90;;;;;;4119591;28;20439;-84
2023/05/13 07:30:07;;;;;;;;;;;14.30;53.40;;;;;;4150362;28;20290;-84
2023/05/13 07:32:08;;;;;;;;;;;14.20;53.00;;;;;;4139106;28;19913;-83
2023/05/13 07:34:09;;;;;;;;;;;14.30;53.40;;;;;;4137211;28;20396;-84
2023/05/13 07:44:42;;;;;;;;;;;14.30;53.20;;;;;;4024784;29;19930;-83
2023/05/13 07:46:43;;;;;;;;;;;14.30;54.70;;;;;;4048151;29;19968;-84
2023/05/13 07:48:51;;;;;;;;;;;14.30;54.60;;;;;;4029884;29;20416;-83
2023/05/13 07:50:51;;;;;;;;;;;14.40;54.30;;;;;;4044970;29;19959;-84
2023/05/13 07:53:08;;;;;;;;;;;14.50;54.90;;;;;;4023839;29;19927;-85
2023/05/13 07:55:09;;;;;;;;;;;14.40;53.80;;;;;;4040569;29;19931;-84
2023/05/13 07:57:13;;;;;;;;;;;14.50;54.10;;;;;;4026671;29;19923;-84
2023/05/13 07:59:14;;;;;;;;;;;14.60;54.40;;;;;;4044118;29;20127;-84
2023/05/13 08:01:17;;;;;;;;;;;14.60;54.60;;;;;;4041564;29;19911;-84
2023/05/13 08:03:26;;;;;;;;;;;14.70;55.20;;;;;;4026869;29;19935;-84
2023/05/13 08:05:40;;;;;;;;;;;14.80;55.60;;;;;;4026409;29;21846;-84
2023/05/13 08:07:40;;;;;;;;;;;14.80;53.50;;;;;;4042296;29;20002;-84
2023/05/13 08:09:41;;;;;;;;;;;14.80;52.80;;;;;;4011117;29;19970;-84
2023/05/13 08:11:49;;;;;;;;;;;14.90;53.40;;;;;;4026204;29;19971;-84
2023/05/13 08:13:59;;;;;;;;;;;15.00;53.30;;;;;;4032189;29;19988;-84
2023/05/13 08:16:14;;;;;;;;;;;15.00;54.60;;;;;;4027633;29;20471;-85
2023/05/13 08:18:20;;;;;;;;;;;14.90;53.80;;;;;;4026024;29;20303;-84
2023/05/13 08:20:41;;;;;;;;;;;15.00;53.20;;;;;;4056870;28;19920;-84
2023/05/13 08:23:11;;;;;;;;;;;15.00;53.00;;;;;;4118882;28;19977;-84
2023/05/13 08:25:34;;;;;;;;;;;15.10;53.00;;;;;;4138925;28;20254;-84
2023/05/13 08:27:57;;;;;;;;;;;15.20;52.90;;;;;;4137814;28;19967;-84
2023/05/13 08:30:18;;;;;;;;;;;15.20;52.10;;;;;;4123873;28;20023;-84
2023/05/13 08:32:39;;;;;;;;;;;15.20;51.90;;;;;;4129012;28;20505;-83
2023/05/13 08:35:00;;;;;;;;;;;15.30;53.00;;;;;;4124169;28;19921;-84
2023/05/13 08:37:01;;;;;;;;;;;15.30;52.80;;;;;;4118832;28;19929;-84
2023/05/13 08:39:01;;;;;;;;;;;15.30;52.80;;;;;;4121444;28;20577;-84
2023/05/13 08:41:03;;;;;;;;;;;15.30;51.60;;;;;;4119652;28;20768;-85
2023/05/13 08:43:10;;;;;;;;;;;15.20;52.50;;;;;;4138984;28;19922;-84
2023/05/13 08:45:18;;;;;;;;;;;15.30;52.40;;;;;;4120152;28;19918;-85
2023/05/13 08:47:29;;;;;;;;;;;15.30;52.60;;;;;;4121272;28;19961;-84
2023/05/13 08:49:32;;;;;;;;;;;15.40;52.30;;;;;;4115219;28;19918;-84
2023/05/13 08:51:33;;;;;;;;;;;15.40;52.20;;;;;;4106528;28;19929;-83
2023/05/13 08:53:37;;;;;;;;;;;15.40;52.10;;;;;;4122642;28;20013;-83
2023/05/13 08:55:41;;;;;;;;;;;15.40;51.90;;;;;;4136516;28;20401;-84
2023/05/13 08:57:47;;;;;;;;;;;15.40;51.80;;;;;;4107424;28;20017;-84
2023/05/13 09:00:09;;;;;;;;;;;15.40;53.20;;;;;;4104575;28;19922;-83
2023/05/13 09:02:12;;;;;;;;;;;15.50;52.80;;;;;;4102470;28;20332;-83
2023/05/13 09:04:13;;;;;;;;;;;15.40;51.50;;;;;;4120328;28;19929;-84
2023/05/13 09:06:14;;;;;;;;;;;15.40;51.50;;;;;;4140697;28;20309;-83
2023/05/13 09:08:15;;;;;;;;;;;15.50;52.30;;;;;;4103215;28;20005;-83
2023/05/13 09:10:24;;;;;;;;;;;15.50;52.40;;;;;;4118397;28;19918;-83
2023/05/13 09:12:46;;;;;;;;;;;15.50;52.40;;;;;;4121048;28;19930;-84
2023/05/13 09:14:52;;;;;;;;;;;15.50;53.00;;;;;;4136015;28;19913;-83
2023/05/13 09:16:54;;;;;;;;;;;15.50;52.90;;;;;;4121395;28;19925;-83
2023/05/13 09:18:57;;;;;;;;;;;15.50;52.30;;;;;;4137339;28;20461;-83
2023/05/13 09:21:18;;;;;;;;;;;15.50;52.70;;;;;;4133612;28;20134;-85
2023/05/13 09:23:22;;;;;;;;;;;15.60;53.10;;;;;;4096572;28;19930;-84
2023/05/13 09:25:28;;;;;;;;;;;15.60;52.70;;;;;;4105510;28;19918;-84
2023/05/13 09:27:39;;;;;;;;;;;15.60;52.00;;;;;;4116944;28;20467;-84
2023/05/13 09:29:40;;;;;;;;;;;15.80;52.30;;;;;;4124139;28;19918;-83
2023/05/13 09:31:43;;;;;;;;;;;15.90;52.80;;;;;;4118086;28;19918;-84
2023/05/13 09:33:56;;;;;;;;;;;15.90;52.00;;;;;;4115427;28;19913;-84
2023/05/13 09:35:57;;;;;;;;;;;15.90;51.20;;;;;;4116538;28;20534;-84
2023/05/13 09:37:57;;;;;;;;;;;15.90;51.20;;;;;;4103763;28;19922;-84
2023/05/13 09:43:38;;;;;;;;;;;16.10;51.40;;;;;;4083194;28;21097;-85
2023/05/13 09:45:39;;;;;;;;;;;16.20;50.30;;;;;;4073818;29;19923;-84
2023/05/13 09:47:41;;;;;;;;;;;16.20;51.30;;;;;;4071400;29;19929;-84
2023/05/13 09:49:42;;;;;;;;;;;16.30;51.30;;;;;;4055238;29;20990;-84
2023/05/13 09:54:12;;;;;;;;;;;16.40;50.10;;;;;;4034270;29;19927;-85
2023/05/13 09:56:30;;;;;;;;;;;16.50;49.60;;;;;;4038491;29;19927;-85
2023/05/13 09:59:03;;;;;;;;;;;16.50;49.30;;;;;;4037399;29;20418;-84
2023/05/13 10:01:03;;;;;;;;;;;16.60;49.80;;;;;;3994344;29;19937;-84
2023/05/13 10:03:04;;;;;;;;;;;16.60;50.40;;;;;;3983962;29;19991;-83
2023/05/13 10:05:07;;;;;;;;;;;16.70;50.70;;;;;;3993980;29;19925;-84
2023/05/13 10:07:08;;;;;;;;;;;16.80;50.00;;;;;;3982698;29;19913;-84
2023/05/13 10:09:16;;;;;;;;;;;16.80;50.50;;;;;;3982770;29;20430;-84
2023/05/13 10:13:55;;;;;;;;;;;16.80;50.20;;;;;;4371698;23;19925;-83
2023/05/13 10:16:06;;;;;;;;;;;16.90;49.90;;;;;;4075176;29;19970;-84
2023/05/13 10:18:08;;;;;;;;;;;16.90;50.60;;;;;;4091722;28;19917;-84
2023/05/13 10:20:30;;;;;;;;;;;17.00;50.80;;;;;;4089351;28;19922;-84
2023/05/13 10:22:33;;;;;;;;;;;17.00;50.30;;;;;;4077086;29;20606;-84
2023/05/13 10:24:40;;;;;;;;;;;17.10;49.80;;;;;;4079129;29;19930;-84
2023/05/13 10:26:42;;;;;;;;;;;17.10;49.40;;;;;;4072930;29;19911;-84
2023/05/13 10:28:47;;;;;;;;;;;17.20;48.20;;;;;;4092846;28;19925;-84
2023/05/13 10:30:51;;;;;;;;;;;17.20;47.80;;;;;;4074591;29;19911;-83
2023/05/13 10:32:53;;;;;;;;;;;17.30;47.90;;;;;;4076681;29;19919;-84
2023/05/13 10:34:59;;;;;;;;;;;17.30;48.80;;;;;;4092427;29;20142;-84
2023/05/13 10:37:24;;;;;;;;;;;17.30;48.10;;;;;;4076620;29;19911;-84
2023/05/13 10:39:40;;;;;;;;;;;17.30;48.30;;;;;;4089548;28;19915;-84
2023/05/13 10:41:59;;;;;;;;;;;17.40;48.10;;;;;;4089727;28;19930;-83
2023/05/13 10:47:22;;;;;;;;;;;17.50;48.00;;;;;;4026812;29;20059;-85
2023/05/13 10:49:36;;;;;;;;;;;17.50;48.10;;;;;;4045349;29;19958;-84
2023/05/13 10:51:43;;;;;;;;;;;17.60;48.50;;;;;;4029105;29;19920;-84
2023/05/13 10:53:54;;;;;;;;;;;17.70;48.40;;;;;;4084058;28;20101;-84
2023/05/13 10:55:58;;;;;;;;;;;17.70;45.80;;;;;;4085915;28;19915;-85
2023/05/13 10:58:14;;;;;;;;;;;17.80;47.80;;;;;;4075086;29;19919;-84
2023/05/13 11:00:15;;;;;;;;;;;17.80;46.90;;;;;;4079110;29;19922;-84
2023/05/13 11:02:30;;;;;;;;;;;17.90;47.20;;;;;;4061576;29;19916;-84
2023/05/13 11:04:30;;;;;;;;;;;18.00;46.80;;;;;;4091273;28;20352;-84
2023/05/13 11:06:38;;;;;;;;;;;18.00;46.80;;;;;;4093451;28;19958;-84
2023/05/13 11:08:40;;;;;;;;;;;18.10;48.30;;;;;;4058912;29;19913;-84
2023/05/13 11:10:40;;;;;;;;;;;18.10;45.30;;;;;;4059035;29;20378;-86
2023/05/13 11:12:41;;;;;;;;;;;18.20;45.00;;;;;;4091083;28;19915;-85
2023/05/13 11:14:43;;;;;;;;;;;18.30;46.30;;;;;;4091077;28;19933;-85
2023/05/13 11:16:50;;;;;;;;;;;18.20;46.80;;;;;;4090101;28;19918;-84
2023/05/13 11:18:51;;;;;;;;;;;18.40;43.60;;;;;;4132160;28;19972;-84
2023/05/13 11:20:52;;;;;;;;;;;18.40;41.70;;;;;;4140750;28;20312;-84
2023/05/13 11:22:53;;;;;;;;;;;18.40;42.50;;;;;;4142648;28;19956;-85
2023/05/13 11:25:02;;;;;;;;;;;18.60;42.40;;;;;;4144859;28;19924;-84
2023/05/13 11:27:14;;;;;;;;;;;18.60;42.80;;;;;;4128537;28;19988;-84
2023/05/13 11:29:26;;;;;;;;;;;18.60;39.80;;;;;;4144501;28;19917;-83
2023/05/13 11:31:27;;;;;;;;;;;18.70;39.10;;;;;;4144963;28;20446;-84
2023/05/13 11:33:52;;;;;;;;;;;18.70;37.10;;;;;;4125695;28;20481;-86
2023/05/13 11:35:55;;;;;;;;;;;18.70;36.50;;;;;;4144870;28;19989;-84
2023/05/13 11:37:56;;;;;;;;;;;18.80;38.70;;;;;;4143019;28;19913;-85
2023/05/13 11:39:57;;;;;;;;;;;18.80;38.30;;;;;;4128619;28;19961;-85
2023/05/13 11:42:01;;;;;;;;;;;18.90;39.60;;;;;;4155544;28;19920;-85
2023/05/13 11:44:03;;;;;;;;;;;18.90;39.70;;;;;;4138425;28;20287;-85
2023/05/13 11:46:05;;;;;;;;;;;18.90;40.10;;;;;;4143153;28;20004;-84
2023/05/13 11:48:19;;;;;;;;;;;18.90;39.30;;;;;;4141163;28;19917;-85
2023/05/13 11:50:20;;;;;;;;;;;19.00;40.70;;;;;;4139267;28;19913;-84
2023/05/13 11:52:21;;;;;;;;;;;19.00;40.50;;;;;;4155053;28;19917;-84
2023/05/13 11:54:25;;;;;;;;;;;19.00;40.60;;;;;;4121101;28;20317;-85
2023/05/13 11:56:33;;;;;;;;;;;19.00;42.20;;;;;;4142543;28;19945;-84
2023/05/13 11:58:34;;;;;;;;;;;19.10;41.90;;;;;;4136151;28;20311;-84
2023/05/13 12:00:34;;;;;;;;;;;19.10;40.10;;;;;;4138793;28;19920;-85
2023/05/13 12:02:42;;;;;;;;;;;19.20;40.80;;;;;;4127205;28;20148;-85
2023/05/13 12:04:43;;;;;;;;;;;19.20;40.50;;;;;;4137532;28;19922;-84
2023/05/13 12:06:47;;;;;;;;;;;19.20;39.90;;;;;;4141544;28;19917;-85
2023/05/13 12:08:48;;;;;;;;;;;19.20;40.80;;;;;;4153220;28;19971;-84
2023/05/13 12:10:49;;;;;;;;;;;19.20;40.60;;;;;;4125997;28;19921;-84
2023/05/13 12:12:55;;;;;;;;;;;19.30;42.20;;;;;;4136903;28;19921;-85
2023/05/13 12:14:59;;;;;;;;;;;19.30;42.30;;;;;;4138663;28;20044;-84
2023/05/13 12:17:09;;;;;;;;;;;19.30;40.50;;;;;;4140371;28;20495;-85
2023/05/13 12:19:30;;;;;;;;;;;19.30;41.80;;;;;;4153905;28;19966;-85
2023/05/13 12:21:50;;;;;;;;;;;19.40;42.00;;;;;;4151635;28;19913;-84
2023/05/13 12:24:18;;;;;;;;;;;19.40;41.40;;;;;;4156492;28;19924;-85
2023/05/13 12:26:39;;;;;;;;;;;19.50;41.00;;;;;;4150524;28;19960;-83
2023/05/13 12:28:59;;;;;;;;;;;19.50;41.60;;;;;;4157053;28;19924;-85
2023/05/13 12:31:20;;;;;;;;;;;19.50;41.30;;;;;;4152083;28;19924;-84
2023/05/13 12:34:05;;;;;;;;;;;19.50;41.00;;;;;;4153394;28;19913;-84
2023/05/13 12:36:32;;;;;;;;;;;19.60;41.10;;;;;;4115175;28;20618;-86
2023/05/13 12:38:32;;;;;;;;;;;19.50;39.80;;;;;;4120296;28;20423;-84
2023/05/13 12:40:33;;;;;;;;;;;19.40;40.00;;;;;;4105790;28;19947;-84
2023/05/13 12:42:34;;;;;;;;;;;19.40;40.80;;;;;;4088553;28;19928;-84
2023/05/13 12:44:34;;;;;;;;;;;19.30;41.90;;;;;;4122795;28;19929;-85
2023/05/13 12:46:36;;;;;;;;;;;19.30;42.00;;;;;;4097444;28;19977;-85
2023/05/13 12:48:40;;;;;;;;;;;19.30;43.50;;;;;;4117593;28;19929;-85
2023/05/13 12:51:11;;;;;;;;;;;19.30;43.60;;;;;;4126528;28;19921;-84
2023/05/13 12:53:14;;;;;;;;;;;19.20;42.20;;;;;;4109209;28;19918;-85